sensor_id;sensor_type;location;lat;lon;timestamp;P1;durP1;ratioP1;P2;durP2;ratioP2
39176;SDS011;24904;52.208;21.192;2023-03-19T00:03:04;28.20;;;13.10;;
39176;SDS011;24904;52.208;21.192;2023-03-19T00:08:07;31.70;;;15.40;;
39176;SDS011;24904;52.208;21.192;2023-03-19T00:13:10;32.20;;;13.80;;
39176;SDS011;24904;52.208;21.192;2023-03-19T00:18:13;30.40;;;14.60;;
39176;SDS011;24904;52.208;21.192;2023-03-19T00:23:16;28.60;;;14.40;;
39176;SDS011;24904;52.208;21.192;2023-03-19T00:28:19;29.20;;;14.80;;
39176;SDS011;24904;52.208;21.192;2023-03-19T00:33:22;26.70;;;13.30;;
39176;SDS011;24904;52.208;21.192;2023-03-19T00:38:26;32.80;;;15.00;;
39176;SDS011;24904;52.208;21.192;2023-03-19T00:43:30;32.20;;;14.90;;
39176;SDS011;24904;52.208;21.192;2023-03-19T00:48:33;30.10;;;14.90;;
39176;SDS011;24904;52.208;21.192;2023-03-19T00:53:36;27.00;;;14.10;;
39176;SDS011;24904;52.208;21.192;2023-03-19T00:58:42;27.30;;;13.70;;
39176;SDS011;24904;52.208;21.192;2023-03-19T01:03:46;28.50;;;13.60;;
39176;SDS011;24904;52.208;21.192;2023-03-19T01:08:49;31.10;;;12.90;;
39176;SDS011;24904;52.208;21.192;2023-03-19T01:13:52;31.70;;;14.40;;
39176;SDS011;24904;52.208;21.192;2023-03-19T01:18:56;30.30;;;13.40;;
39176;SDS011;24904;52.208;21.192;2023-03-19T01:23:59;29.60;;;13.40;;
39176;SDS011;24904;52.208;21.192;2023-03-19T01:29:03;30.00;;;12.30;;
39176;SDS011;24904;52.208;21.192;2023-03-19T01:34:08;26.70;;;13.40;;
39176;SDS011;24904;52.208;21.192;2023-03-19T01:39:24;27.20;;;13.10;;
39176;SDS011;24904;52.208;21.192;2023-03-19T01:44:29;27.00;;;13.30;;
39176;SDS011;24904;52.208;21.192;2023-03-19T01:49:53;24.90;;;12.60;;
39176;SDS011;24904;52.208;21.192;2023-03-19T01:54:57;26.20;;;13.10;;
39176;SDS011;24904;52.208;21.192;2023-03-19T02:00:22;29.50;;;14.30;;
39176;SDS011;24904;52.208;21.192;2023-03-19T02:05:26;21.60;;;11.70;;
39176;SDS011;24904;52.208;21.192;2023-03-19T02:10:33;25.20;;;12.30;;
39176;SDS011;24904;52.208;21.192;2023-03-19T02:15:37;24.20;;;12.90;;
39176;SDS011;24904;52.208;21.192;2023-03-19T02:20:42;27.60;;;13.80;;
39176;SDS011;24904;52.208;21.192;2023-03-19T02:25:56;29.00;;;13.30;;
39176;SDS011;24904;52.208;21.192;2023-03-19T02:31:04;22.30;;;11.70;;
39176;SDS011;24904;52.208;21.192;2023-03-19T02:36:09;27.30;;;13.10;;
39176;SDS011;24904;52.208;21.192;2023-03-19T02:41:15;26.30;;;13.10;;
39176;SDS011;24904;52.208;21.192;2023-03-19T02:46:19;28.30;;;13.00;;
39176;SDS011;24904;52.208;21.192;2023-03-19T02:51:22;24.10;;;12.70;;
39176;SDS011;24904;52.208;21.192;2023-03-19T02:56:25;25.00;;;12.40;;
39176;SDS011;24904;52.208;21.192;2023-03-19T03:01:28;26.60;;;13.20;;
39176;SDS011;24904;52.208;21.192;2023-03-19T03:06:31;25.50;;;11.90;;
39176;SDS011;24904;52.208;21.192;2023-03-19T03:11:36;21.50;;;11.40;;
39176;SDS011;24904;52.208;21.192;2023-03-19T03:16:43;27.00;;;11.10;;
39176;SDS011;24904;52.208;21.192;2023-03-19T03:21:46;22.80;;;11.40;;
39176;SDS011;24904;52.208;21.192;2023-03-19T03:26:49;24.30;;;12.10;;
39176;SDS011;24904;52.208;21.192;2023-03-19T03:31:52;24.30;;;12.10;;
39176;SDS011;24904;52.208;21.192;2023-03-19T03:36:55;26.80;;;12.40;;
39176;SDS011;24904;52.208;21.192;2023-03-19T03:41:58;22.70;;;12.00;;
39176;SDS011;24904;52.208;21.192;2023-03-19T03:47:04;25.10;;;11.30;;
39176;SDS011;24904;52.208;21.192;2023-03-19T03:52:08;24.40;;;11.20;;
39176;SDS011;24904;52.208;21.192;2023-03-19T03:57:12;23.60;;;11.50;;
39176;SDS011;24904;52.208;21.192;2023-03-19T04:02:16;22.00;;;11.50;;
39176;SDS011;24904;52.208;21.192;2023-03-19T04:07:19;21.80;;;11.40;;
39176;SDS011;24904;52.208;21.192;2023-03-19T04:12:28;26.10;;;11.80;;
39176;SDS011;24904;52.208;21.192;2023-03-19T04:17:31;24.80;;;11.80;;
39176;SDS011;24904;52.208;21.192;2023-03-19T04:22:34;25.60;;;12.60;;
39176;SDS011;24904;52.208;21.192;2023-03-19T04:27:38;24.70;;;12.00;;
39176;SDS011;24904;52.208;21.192;2023-03-19T04:32:42;24.00;;;12.30;;
39176;SDS011;24904;52.208;21.192;2023-03-19T04:37:45;25.40;;;12.20;;
39176;SDS011;24904;52.208;21.192;2023-03-19T04:42:49;25.20;;;12.60;;
39176;SDS011;24904;52.208;21.192;2023-03-19T04:48:06;24.30;;;12.40;;
39176;SDS011;24904;52.208;21.192;2023-03-19T04:53:10;25.70;;;12.80;;
39176;SDS011;24904;52.208;21.192;2023-03-19T04:58:14;30.10;;;12.50;;
39176;SDS011;24904;52.208;21.192;2023-03-19T05:03:17;25.60;;;11.50;;
39176;SDS011;24904;52.208;21.192;2023-03-19T05:08:22;22.20;;;10.80;;
39176;SDS011;24904;52.208;21.192;2023-03-19T05:13:25;26.20;;;12.30;;
39176;SDS011;24904;52.208;21.192;2023-03-19T05:18:28;24.70;;;11.50;;
39176;SDS011;24904;52.208;21.192;2023-03-19T05:23:31;28.10;;;12.30;;
39176;SDS011;24904;52.208;21.192;2023-03-19T05:33:44;24.30;;;12.10;;
39176;SDS011;24904;52.208;21.192;2023-03-19T05:38:47;20.30;;;10.70;;
39176;SDS011;24904;52.208;21.192;2023-03-19T05:43:57;27.50;;;12.20;;
39176;SDS011;24904;52.208;21.192;2023-03-19T05:49:23;23.00;;;11.60;;
39176;SDS011;24904;52.208;21.192;2023-03-19T05:54:27;21.60;;;11.10;;
39176;SDS011;24904;52.208;21.192;2023-03-19T05:59:38;22.10;;;11.60;;
39176;SDS011;24904;52.208;21.192;2023-03-19T06:04:53;24.10;;;11.40;;
39176;SDS011;24904;52.208;21.192;2023-03-19T06:10:05;26.70;;;12.00;;
39176;SDS011;24904;52.208;21.192;2023-03-19T06:15:10;24.70;;;11.90;;
39176;SDS011;24904;52.208;21.192;2023-03-19T06:20:19;24.80;;;11.60;;
39176;SDS011;24904;52.208;21.192;2023-03-19T06:25:23;25.40;;;11.90;;
39176;SDS011;24904;52.208;21.192;2023-03-19T06:30:27;24.60;;;12.10;;
39176;SDS011;24904;52.208;21.192;2023-03-19T06:35:32;23.00;;;11.50;;
39176;SDS011;24904;52.208;21.192;2023-03-19T06:46:58;23.20;;;12.80;;
39176;SDS011;24904;52.208;21.192;2023-03-19T06:57:31;23.70;;;11.90;;
39176;SDS011;24904;52.208;21.192;2023-03-19T07:02:35;29.10;;;13.40;;
39176;SDS011;24904;52.208;21.192;2023-03-19T07:07:38;22.60;;;13.10;;
39176;SDS011;24904;52.208;21.192;2023-03-19T07:12:44;27.90;;;13.30;;
39176;SDS011;24904;52.208;21.192;2023-03-19T07:17:47;21.20;;;12.80;;
39176;SDS011;24904;52.208;21.192;2023-03-19T07:22:50;30.80;;;13.70;;
39176;SDS011;24904;52.208;21.192;2023-03-19T07:27:53;24.50;;;13.50;;
39176;SDS011;24904;52.208;21.192;2023-03-19T07:32:56;22.70;;;12.60;;
39176;SDS011;24904;52.208;21.192;2023-03-19T07:37:59;22.00;;;12.80;;
39176;SDS011;24904;52.208;21.192;2023-03-19T07:43:03;23.70;;;13.10;;
39176;SDS011;24904;52.208;21.192;2023-03-19T07:48:08;24.50;;;12.20;;
39176;SDS011;24904;52.208;21.192;2023-03-19T07:53:12;25.60;;;12.50;;
39176;SDS011;24904;52.208;21.192;2023-03-19T07:58:17;24.00;;;12.80;;
39176;SDS011;24904;52.208;21.192;2023-03-19T08:03:22;27.30;;;13.60;;
39176;SDS011;24904;52.208;21.192;2023-03-19T08:08:27;24.20;;;12.40;;
39176;SDS011;24904;52.208;21.192;2023-03-19T08:13:31;22.00;;;11.80;;
39176;SDS011;24904;52.208;21.192;2023-03-19T08:18:35;25.80;;;13.10;;
39176;SDS011;24904;52.208;21.192;2023-03-19T08:23:39;22.60;;;13.20;;
39176;SDS011;24904;52.208;21.192;2023-03-19T08:28:43;19.70;;;12.00;;
39176;SDS011;24904;52.208;21.192;2023-03-19T08:33:48;24.50;;;12.90;;
39176;SDS011;24904;52.208;21.192;2023-03-19T08:38:52;22.90;;;12.60;;
39176;SDS011;24904;52.208;21.192;2023-03-19T08:52:51;25.60;;;12.70;;
39176;SDS011;24904;52.208;21.192;2023-03-19T08:57:56;20.50;;;11.10;;
39176;SDS011;24904;52.208;21.192;2023-03-19T09:03:01;22.70;;;11.60;;
39176;SDS011;24904;52.208;21.192;2023-03-19T09:08:07;25.00;;;12.30;;
39176;SDS011;24904;52.208;21.192;2023-03-19T09:13:12;19.50;;;10.40;;
39176;SDS011;24904;52.208;21.192;2023-03-19T09:18:17;20.20;;;10.50;;
39176;SDS011;24904;52.208;21.192;2023-03-19T09:23:24;24.90;;;11.10;;
39176;SDS011;24904;52.208;21.192;2023-03-19T09:28:30;19.30;;;10.30;;
39176;SDS011;24904;52.208;21.192;2023-03-19T09:33:35;19.20;;;10.00;;
39176;SDS011;24904;52.208;21.192;2023-03-19T09:38:40;20.00;;;11.30;;
39176;SDS011;24904;52.208;21.192;2023-03-19T09:43:56;18.20;;;10.60;;
39176;SDS011;24904;52.208;21.192;2023-03-19T09:49:05;18.70;;;9.70;;
39176;SDS011;24904;52.208;21.192;2023-03-19T09:54:26;15.10;;;9.40;;
39176;SDS011;24904;52.208;21.192;2023-03-19T09:59:34;14.80;;;9.30;;
39176;SDS011;24904;52.208;21.192;2023-03-19T10:04:45;16.10;;;9.40;;
39176;SDS011;24904;52.208;21.192;2023-03-19T10:10:11;15.50;;;9.50;;
39176;SDS011;24904;52.208;21.192;2023-03-19T10:15:28;16.80;;;8.80;;
39176;SDS011;24904;52.208;21.192;2023-03-19T10:20:37;13.50;;;8.10;;
39176;SDS011;24904;52.208;21.192;2023-03-19T10:25:52;13.50;;;8.20;;
39176;SDS011;24904;52.208;21.192;2023-03-19T10:31:05;14.30;;;8.10;;
39176;SDS011;24904;52.208;21.192;2023-03-19T10:36:23;18.90;;;9.70;;
39176;SDS011;24904;52.208;21.192;2023-03-19T10:41:40;15.60;;;8.40;;
39176;SDS011;24904;52.208;21.192;2023-03-19T10:46:51;17.20;;;8.80;;
39176;SDS011;24904;52.208;21.192;2023-03-19T10:51:58;13.20;;;8.20;;
39176;SDS011;24904;52.208;21.192;2023-03-19T10:57:04;15.50;;;8.00;;
39176;SDS011;24904;52.208;21.192;2023-03-19T11:02:23;12.50;;;7.60;;
39176;SDS011;24904;52.208;21.192;2023-03-19T11:07:31;14.70;;;7.90;;
39176;SDS011;24904;52.208;21.192;2023-03-19T11:12:37;11.90;;;7.10;;
39176;SDS011;24904;52.208;21.192;2023-03-19T11:17:45;12.40;;;6.80;;
39176;SDS011;24904;52.208;21.192;2023-03-19T11:22:52;10.90;;;7.20;;
39176;SDS011;24904;52.208;21.192;2023-03-19T11:28:06;10.10;;;6.70;;
39176;SDS011;24904;52.208;21.192;2023-03-19T11:33:19;12.80;;;7.10;;
39176;SDS011;24904;52.208;21.192;2023-03-19T11:38:40;11.40;;;6.70;;
39176;SDS011;24904;52.208;21.192;2023-03-19T11:44:00;12.10;;;6.80;;
39176;SDS011;24904;52.208;21.192;2023-03-19T11:49:23;12.70;;;7.10;;
39176;SDS011;24904;52.208;21.192;2023-03-19T11:54:46;14.10;;;7.40;;
39176;SDS011;24904;52.208;21.192;2023-03-19T12:00:05;15.70;;;8.10;;
39176;SDS011;24904;52.208;21.192;2023-03-19T12:05:24;12.50;;;8.20;;
39176;SDS011;24904;52.208;21.192;2023-03-19T12:10:37;11.80;;;7.70;;
39176;SDS011;24904;52.208;21.192;2023-03-19T12:15:54;14.00;;;8.40;;
39176;SDS011;24904;52.208;21.192;2023-03-19T12:21:06;11.90;;;7.30;;
39176;SDS011;24904;52.208;21.192;2023-03-19T12:26:21;12.40;;;7.70;;
39176;SDS011;24904;52.208;21.192;2023-03-19T12:31:37;13.30;;;7.10;;
39176;SDS011;24904;52.208;21.192;2023-03-19T12:36:53;11.90;;;6.80;;
39176;SDS011;24904;52.208;21.192;2023-03-19T12:42:06;10.70;;;7.10;;
39176;SDS011;24904;52.208;21.192;2023-03-19T12:47:16;11.40;;;7.10;;
39176;SDS011;24904;52.208;21.192;2023-03-19T12:52:28;11.50;;;6.90;;
39176;SDS011;24904;52.208;21.192;2023-03-19T12:57:38;10.80;;;7.00;;
39176;SDS011;24904;52.208;21.192;2023-03-19T13:02:51;11.00;;;7.40;;
39176;SDS011;24904;52.208;21.192;2023-03-19T13:08:02;11.80;;;6.80;;
39176;SDS011;24904;52.208;21.192;2023-03-19T13:13:20;12.70;;;6.80;;
39176;SDS011;24904;52.208;21.192;2023-03-19T13:18:42;10.20;;;6.30;;
39176;SDS011;24904;52.208;21.192;2023-03-19T13:24:00;11.50;;;6.60;;
39176;SDS011;24904;52.208;21.192;2023-03-19T13:29:15;18.60;;;6.60;;
39176;SDS011;24904;52.208;21.192;2023-03-19T13:34:23;10.90;;;6.70;;
39176;SDS011;24904;52.208;21.192;2023-03-19T13:39:30;9.90;;;6.50;;
39176;SDS011;24904;52.208;21.192;2023-03-19T13:44:41;8.90;;;5.50;;
39176;SDS011;24904;52.208;21.192;2023-03-19T13:50:06;10.30;;;6.30;;
39176;SDS011;24904;52.208;21.192;2023-03-19T13:55:29;13.90;;;6.70;;
39176;SDS011;24904;52.208;21.192;2023-03-19T14:00:56;12.40;;;7.10;;
39176;SDS011;24904;52.208;21.192;2023-03-19T14:06:02;10.20;;;6.20;;
39176;SDS011;24904;52.208;21.192;2023-03-19T14:12:08;11.70;;;6.60;;
39176;SDS011;24904;52.208;21.192;2023-03-19T14:17:21;11.70;;;5.80;;
39176;SDS011;24904;52.208;21.192;2023-03-19T14:22:31;9.00;;;6.00;;
39176;SDS011;24904;52.208;21.192;2023-03-19T14:27:38;9.00;;;5.70;;
39176;SDS011;24904;52.208;21.192;2023-03-19T14:32:47;9.00;;;5.50;;
39176;SDS011;24904;52.208;21.192;2023-03-19T14:37:52;16.30;;;6.40;;
39176;SDS011;24904;52.208;21.192;2023-03-19T14:42:59;10.00;;;5.70;;
39176;SDS011;24904;52.208;21.192;2023-03-19T14:48:22;10.70;;;6.00;;
39176;SDS011;24904;52.208;21.192;2023-03-19T14:53:37;11.40;;;6.10;;
39176;SDS011;24904;52.208;21.192;2023-03-19T14:58:48;16.00;;;6.00;;
39176;SDS011;24904;52.208;21.192;2023-03-19T15:08:57;8.00;;;4.90;;
39176;SDS011;24904;52.208;21.192;2023-03-19T15:14:10;9.90;;;5.70;;
39176;SDS011;24904;52.208;21.192;2023-03-19T15:19:24;8.10;;;5.80;;
39176;SDS011;24904;52.208;21.192;2023-03-19T15:24:30;8.90;;;5.60;;
39176;SDS011;24904;52.208;21.192;2023-03-19T15:29:34;10.60;;;6.60;;
39176;SDS011;24904;52.208;21.192;2023-03-19T15:34:37;15.10;;;6.00;;
39176;SDS011;24904;52.208;21.192;2023-03-19T15:39:43;14.10;;;6.80;;
39176;SDS011;24904;52.208;21.192;2023-03-19T15:44:50;8.60;;;5.40;;
39176;SDS011;24904;52.208;21.192;2023-03-19T15:57:01;12.40;;;6.50;;
39176;SDS011;24904;52.208;21.192;2023-03-19T16:02:12;15.50;;;6.80;;
39176;SDS011;24904;52.208;21.192;2023-03-19T16:07:24;15.50;;;7.70;;
39176;SDS011;24904;52.208;21.192;2023-03-19T16:12:37;15.40;;;7.40;;
39176;SDS011;24904;52.208;21.192;2023-03-19T16:17:41;11.20;;;6.00;;
39176;SDS011;24904;52.208;21.192;2023-03-19T16:22:47;12.40;;;6.10;;
39176;SDS011;24904;52.208;21.192;2023-03-19T16:27:55;12.50;;;6.50;;
39176;SDS011;24904;52.208;21.192;2023-03-19T16:32:58;11.30;;;6.20;;
39176;SDS011;24904;52.208;21.192;2023-03-19T16:38:09;9.50;;;6.50;;
39176;SDS011;24904;52.208;21.192;2023-03-19T16:43:15;12.80;;;6.10;;
39176;SDS011;24904;52.208;21.192;2023-03-19T16:48:20;14.80;;;5.40;;
39176;SDS011;24904;52.208;21.192;2023-03-19T16:53:24;10.40;;;6.30;;
39176;SDS011;24904;52.208;21.192;2023-03-19T16:58:30;15.70;;;5.60;;
39176;SDS011;24904;52.208;21.192;2023-03-19T17:03:36;12.20;;;5.70;;
39176;SDS011;24904;52.208;21.192;2023-03-19T17:08:39;10.30;;;6.20;;
39176;SDS011;24904;52.208;21.192;2023-03-19T17:13:43;13.30;;;7.70;;
39176;SDS011;24904;52.208;21.192;2023-03-19T17:18:46;16.10;;;8.00;;
39176;SDS011;24904;52.208;21.192;2023-03-19T17:23:49;13.30;;;7.30;;
39176;SDS011;24904;52.208;21.192;2023-03-19T17:28:53;10.00;;;6.70;;
39176;SDS011;24904;52.208;21.192;2023-03-19T17:33:57;41.80;;;8.20;;
39176;SDS011;24904;52.208;21.192;2023-03-19T17:39:03;12.00;;;6.80;;
39176;SDS011;24904;52.208;21.192;2023-03-19T17:44:07;15.90;;;6.70;;
39176;SDS011;24904;52.208;21.192;2023-03-19T17:49:16;19.00;;;8.30;;
39176;SDS011;24904;52.208;21.192;2023-03-19T17:54:21;24.30;;;15.20;;
39176;SDS011;24904;52.208;21.192;2023-03-19T17:59:26;25.40;;;15.70;;
39176;SDS011;24904;52.208;21.192;2023-03-19T18:04:29;24.20;;;15.40;;
39176;SDS011;24904;52.208;21.192;2023-03-19T18:09:32;18.50;;;12.20;;
39176;SDS011;24904;52.208;21.192;2023-03-19T18:14:35;18.20;;;11.10;;
39176;SDS011;24904;52.208;21.192;2023-03-19T18:19:39;14.60;;;10.10;;
39176;SDS011;24904;52.208;21.192;2023-03-19T18:24:42;16.40;;;9.90;;
39176;SDS011;24904;52.208;21.192;2023-03-19T18:29:45;17.50;;;10.30;;
39176;SDS011;24904;52.208;21.192;2023-03-19T18:34:48;17.50;;;11.30;;
39176;SDS011;24904;52.208;21.192;2023-03-19T18:39:51;21.60;;;12.00;;
39176;SDS011;24904;52.208;21.192;2023-03-19T18:44:54;21.10;;;12.70;;
39176;SDS011;24904;52.208;21.192;2023-03-19T18:49:57;23.00;;;12.40;;
39176;SDS011;24904;52.208;21.192;2023-03-19T18:55:01;21.40;;;13.00;;
39176;SDS011;24904;52.208;21.192;2023-03-19T19:00:08;27.00;;;14.50;;
39176;SDS011;24904;52.208;21.192;2023-03-19T19:05:18;25.60;;;13.80;;
39176;SDS011;24904;52.208;21.192;2023-03-19T19:10:23;27.30;;;14.90;;
39176;SDS011;24904;52.208;21.192;2023-03-19T19:15:31;25.70;;;13.90;;
39176;SDS011;24904;52.208;21.192;2023-03-19T19:20:35;21.70;;;13.20;;
39176;SDS011;24904;52.208;21.192;2023-03-19T19:25:38;26.10;;;13.60;;
39176;SDS011;24904;52.208;21.192;2023-03-19T19:30:42;26.60;;;15.00;;
39176;SDS011;24904;52.208;21.192;2023-03-19T19:35:45;23.40;;;14.10;;
39176;SDS011;24904;52.208;21.192;2023-03-19T19:40:50;26.00;;;12.90;;
39176;SDS011;24904;52.208;21.192;2023-03-19T19:45:54;28.20;;;13.90;;
39176;SDS011;24904;52.208;21.192;2023-03-19T19:50:59;23.50;;;12.00;;
39176;SDS011;24904;52.208;21.192;2023-03-19T19:56:08;24.30;;;13.30;;
39176;SDS011;24904;52.208;21.192;2023-03-19T20:01:17;23.00;;;13.50;;
39176;SDS011;24904;52.208;21.192;2023-03-19T20:06:21;22.50;;;12.60;;
39176;SDS011;24904;52.208;21.192;2023-03-19T20:11:24;24.00;;;12.00;;
39176;SDS011;24904;52.208;21.192;2023-03-19T20:16:28;21.60;;;12.20;;
39176;SDS011;24904;52.208;21.192;2023-03-19T20:21:31;24.20;;;12.10;;
39176;SDS011;24904;52.208;21.192;2023-03-19T20:26:34;23.20;;;13.00;;
39176;SDS011;24904;52.208;21.192;2023-03-19T20:31:37;26.40;;;12.30;;
39176;SDS011;24904;52.208;21.192;2023-03-19T20:36:41;25.20;;;12.80;;
39176;SDS011;24904;52.208;21.192;2023-03-19T20:41:44;23.30;;;13.30;;
39176;SDS011;24904;52.208;21.192;2023-03-19T20:53:04;20.90;;;12.60;;
39176;SDS011;24904;52.208;21.192;2023-03-19T20:58:12;26.40;;;13.20;;
39176;SDS011;24904;52.208;21.192;2023-03-19T21:03:22;27.60;;;14.20;;
39176;SDS011;24904;52.208;21.192;2023-03-19T21:08:30;25.00;;;13.50;;
39176;SDS011;24904;52.208;21.192;2023-03-19T21:18:42;27.00;;;15.10;;
39176;SDS011;24904;52.208;21.192;2023-03-19T21:23:49;37.90;;;16.00;;
39176;SDS011;24904;52.208;21.192;2023-03-19T21:28:59;33.00;;;17.60;;
39176;SDS011;24904;52.208;21.192;2023-03-19T21:34:09;31.60;;;17.80;;
39176;SDS011;24904;52.208;21.192;2023-03-19T21:39:16;33.00;;;18.60;;
39176;SDS011;24904;52.208;21.192;2023-03-19T21:44:21;37.10;;;17.60;;
39176;SDS011;24904;52.208;21.192;2023-03-19T21:49:30;34.90;;;18.70;;
39176;SDS011;24904;52.208;21.192;2023-03-19T21:54:35;40.80;;;19.30;;
39176;SDS011;24904;52.208;21.192;2023-03-19T21:59:41;27.80;;;13.70;;
39176;SDS011;24904;52.208;21.192;2023-03-19T22:04:47;28.60;;;15.40;;
39176;SDS011;24904;52.208;21.192;2023-03-19T22:09:52;28.40;;;16.30;;
39176;SDS011;24904;52.208;21.192;2023-03-19T22:14:58;33.30;;;16.90;;
39176;SDS011;24904;52.208;21.192;2023-03-19T22:20:04;33.70;;;18.70;;
39176;SDS011;24904;52.208;21.192;2023-03-19T22:25:16;32.00;;;17.50;;
39176;SDS011;24904;52.208;21.192;2023-03-19T22:30:24;37.80;;;20.60;;
39176;SDS011;24904;52.208;21.192;2023-03-19T22:35:34;50.70;;;27.90;;
39176;SDS011;24904;52.208;21.192;2023-03-19T22:40:39;41.30;;;22.00;;
39176;SDS011;24904;52.208;21.192;2023-03-19T22:45:46;37.50;;;19.40;;
39176;SDS011;24904;52.208;21.192;2023-03-19T22:50:57;35.50;;;18.40;;
39176;SDS011;24904;52.208;21.192;2023-03-19T22:56:02;33.70;;;18.70;;
39176;SDS011;24904;52.208;21.192;2023-03-19T23:06:42;34.20;;;18.70;;
39176;SDS011;24904;52.208;21.192;2023-03-19T23:11:47;32.00;;;18.30;;
39176;SDS011;24904;52.208;21.192;2023-03-19T23:16:52;34.90;;;19.00;;
39176;SDS011;24904;52.208;21.192;2023-03-19T23:21:59;34.90;;;17.60;;
39176;SDS011;24904;52.208;21.192;2023-03-19T23:27:08;31.50;;;17.10;;
39176;SDS011;24904;52.208;21.192;2023-03-19T23:32:23;36.60;;;19.60;;
39176;SDS011;24904;52.208;21.192;2023-03-19T23:46:15;36.70;;;20.60;;
39176;SDS011;24904;52.208;21.192;2023-03-19T23:51:19;37.10;;;20.10;;
39176;SDS011;24904;52.208;21.192;2023-03-19T23:56:22;40.80;;;19.70;;
